Time;durP1;ratioP1;P1;durP2;ratioP2;P2;SDS_P1;SDS_P2;PMS_P1;PMS_P2;Temp;Humidity;BMP_temperature;BMP_pressure;BME280_temperature;BME280_humidity;BME280_pressure;Samples;Min_cycle;Max_cycle;Signal;HPM_P1;HPM_P2
2020/12/10 00:02:16;;;;;;;47.20;25.52;;;;;;;0.69;68.08;98631.11;251833;1133;115839;-79
2020/12/10 00:07:36;;;;;;;;;;;;;;;;;;;;;
2020/12/10 00:12:55;;;;;;;55.50;25.63;;;;;;;0.57;68.45;98615.73;251787;1132;117040;-78
2020/12/10 00:18:19;;;;;;;;;;;;;;;;;;;;;
2020/12/10 00:23:35;;;;;;;55.00;25.10;;;;;;;0.58;68.40;98614.86;251639;1134;114950;-78
2020/12/10 00:28:44;;;;;;;47.53;24.25;;;;;;;0.57;67.96;98605.27;251937;1133;114653;-79
2020/12/10 00:34:01;;;;;;;51.50;24.47;;;;;;;0.57;68.51;98610.50;251749;1132;114644;-78
2020/12/10 00:39:42;;;;;;;52.87;25.30;;;;;;;0.57;68.16;98601.79;251737;1134;114682;-79
2020/12/10 00:44:54;;;;;;;55.83;25.57;;;;;;;0.64;68.65;98604.18;251288;1133;114839;-80
2020/12/10 00:50:15;;;;;;;53.47;25.93;;;;;;;0.68;68.24;98599.74;250774;1135;115937;-79
2020/12/10 00:55:23;;;;;;;54.48;25.50;;;;;;;0.67;68.12;98603.23;251862;1133;115326;-79
2020/12/10 01:00:27;;;;;;;53.70;26.73;;;;;;;0.62;67.65;98610.39;251896;1134;115577;-79
2020/12/10 01:05:45;;;;;;;57.88;28.52;;;;;;;0.61;68.59;98593.83;251883;1134;115449;-77
2020/12/10 01:10:56;;;;;;;62.93;27.10;;;;;;;0.65;67.89;98591.97;251431;1134;115066;-76
2020/12/10 01:16:10;;;;;;;58.70;25.07;;;;;;;0.63;68.45;98586.77;250387;1134;115729;-80
2020/12/10 01:21:36;;;;;;;58.68;26.93;;;;;;;0.59;68.35;98573.81;251980;1134;116047;-80
2020/12/10 01:26:49;;;;;;;63.27;29.50;;;;;;;0.52;68.03;98567.91;251787;1134;115304;-79
2020/12/10 01:32:05;;;;;;;61.90;28.07;;;;;;;0.52;68.44;98561.81;251956;1133;115781;-79
2020/12/10 01:37:40;;;;;;;65.12;28.62;;;;;;;0.55;68.49;98562.58;251849;1134;116080;-79
2020/12/10 01:42:52;;;;;;;60.83;28.27;;;;;;;0.56;68.30;98555.58;251904;1133;114789;-78
2020/12/10 01:48:11;;;;;;;53.67;24.40;;;;;;;0.55;68.09;98559.96;247212;1135;114845;-78
2020/12/10 02:00:32;;;;;;;58.35;25.62;;;;;;;0.55;68.08;98538.16;250646;1132;104516;-78
2020/12/10 02:05:47;;;;;;;60.33;25.15;;;;;;;0.52;68.75;98533.02;252090;1132;114970;-78
2020/12/10 02:10:49;;;;;;;57.88;27.25;;;;;;;0.47;68.04;98530.52;252106;1132;114391;-78
2020/12/10 02:15:52;;;;;;;63.92;27.98;;;;;;;0.48;68.64;98521.78;251860;1132;114367;-78
2020/12/10 02:20:54;;;;;;;57.17;26.80;;;;;;;0.50;68.46;98514.72;251923;1132;114749;-78
2020/12/10 02:25:56;;;;;;;57.10;27.75;;;;;;;0.48;69.06;98511.31;252237;1132;114410;-78
2020/12/10 02:30:59;;;;;;;58.85;27.82;;;;;;;0.43;67.74;98516.66;251734;1132;115028;-79
2020/12/10 02:36:01;;;;;;;63.40;27.13;;;;;;;0.49;69.31;98515.63;252121;1132;114623;-79
2020/12/10 02:41:04;;;;;;;66.22;27.25;;;;;;;0.57;68.61;98504.92;252057;1132;114284;-79
2020/12/10 02:46:07;;;;;;;60.00;27.55;;;;;;;0.65;69.04;98511.66;251957;1132;114417;-79
2020/12/10 02:51:09;;;;;;;59.35;28.27;;;;;;;0.62;69.05;98496.04;251913;1132;114535;-80
2020/12/10 02:56:13;;;;;;;54.08;24.98;;;;;;;0.68;68.51;98492.38;252113;1132;114672;-79
2020/12/10 03:01:16;;;;;;;59.90;26.70;;;;;;;0.65;68.59;98498.56;252055;1132;114453;-80
2020/12/10 03:06:19;;;;;;;62.55;27.15;;;;;;;0.62;69.18;98492.56;251849;1131;114580;-80
2020/12/10 03:11:22;;;;;;;52.45;24.90;;;;;;;0.51;68.71;98487.66;252119;1131;114945;-79
2020/12/10 03:16:24;;;;;;;60.83;26.62;;;;;;;0.48;69.40;98477.28;252031;1132;115262;-80
2020/12/10 03:21:27;;;;;;;48.65;23.60;;;;;;;0.47;68.50;98478.16;251936;1132;114528;-79
2020/12/10 03:26:29;;;;;;;57.15;25.30;;;;;;;0.47;69.25;98475.55;252002;1132;114578;-80
2020/12/10 03:31:32;;;;;;;47.45;21.75;;;;;;;0.45;69.21;98470.38;251821;1134;115061;-80
2020/12/10 03:36:48;;;;;;;55.70;25.40;;;;;;;0.48;68.68;98456.34;252057;1132;115021;-80
2020/12/10 03:41:52;;;;;;;54.20;24.35;;;;;;;0.51;69.42;98456.25;251801;1132;114636;-80
2020/12/10 03:46:54;;;;;;;47.10;22.45;;;;;;;0.52;68.09;98444.87;252098;1132;115737;-79
2020/12/10 03:51:57;;;;;;;53.75;24.43;;;;;;;0.54;69.74;98436.95;251036;1132;114525;-81
2020/12/10 03:56:59;;;;;;;54.20;24.35;;;;;;;0.51;68.79;98440.55;251879;1132;115771;-79
2020/12/10 04:02:02;;;;;;;54.77;24.60;;;;;;;0.53;68.20;98427.39;251938;1132;115807;-79
2020/12/10 04:07:04;;;;;;;47.98;23.38;;;;;;;0.52;69.11;98428.31;251943;1132;115127;-79
2020/12/10 04:12:07;;;;;;;42.73;19.32;;;;;;;0.50;69.24;98420.48;252209;1133;114947;-79
2020/12/10 04:17:09;;;;;;;46.23;22.97;;;;;;;0.49;69.25;98438.87;252098;1132;114776;-79
2020/12/10 04:22:12;;;;;;;41.97;19.67;;;;;;;0.52;68.28;98429.16;251986;1132;114995;-79
2020/12/10 04:27:14;;;;;;;47.25;23.32;;;;;;;0.51;69.33;98422.22;251946;1134;114664;-79
2020/12/10 04:32:17;;;;;;;46.98;23.60;;;;;;;0.51;69.00;98427.45;252024;1132;115488;-79
2020/12/10 04:37:19;;;;;;;45.85;22.05;;;;;;;0.55;68.65;98417.75;252067;1132;115319;-79
2020/12/10 04:42:23;;;;;;;39.73;19.85;;;;;;;0.57;69.20;98405.45;252028;1132;115109;-79
2020/12/10 04:47:28;;;;;;;45.05;22.05;;;;;;;0.58;68.77;98396.67;252113;1134;115665;-79
2020/12/10 04:52:33;;;;;;;42.80;19.95;;;;;;;0.57;68.55;98395.82;252077;1132;114782;-79
2020/12/10 04:57:36;;;;;;;39.78;20.10;;;;;;;0.58;69.29;98399.30;251941;1134;114761;-79
2020/12/10 05:02:38;;;;;;;41.02;21.10;;;;;;;0.57;68.02;98413.30;251809;1132;114576;-80
2020/12/10 05:07:41;;;;;;;38.00;19.23;;;;;;;0.58;68.56;98407.15;251836;1132;114902;-80
2020/12/10 05:12:45;;;;;;;40.03;19.85;;;;;;;0.59;68.55;98394.02;251864;1133;114515;-80
2020/12/10 05:17:47;;;;;;;36.13;17.87;;;;;;;0.61;68.51;98396.58;251848;1132;115151;-80
2020/12/10 05:22:50;;;;;;;41.00;19.75;;;;;;;0.59;68.06;98388.79;252231;1132;114453;-81
2020/12/10 05:28:01;;;;;;;35.78;18.05;;;;;;;0.60;69.25;98398.34;251950;1132;115653;-80
2020/12/10 05:33:11;;;;;;;40.60;19.62;;;;;;;0.62;69.51;98385.22;251840;1132;114638;-81
2020/12/10 05:38:13;;;;;;;41.18;19.77;;;;;;;0.65;68.35;98385.98;252032;1132;114676;-80
2020/12/10 05:43:22;;;;;;;43.10;20.15;;;;;;;0.62;67.81;98372.98;252088;1132;114627;-81
2020/12/10 05:48:26;;;;;;;42.55;19.32;;;;;;;0.62;68.54;98378.22;252185;1134;114548;-79
2020/12/10 05:53:31;;;;;;;39.48;19.23;;;;;;;0.63;68.77;98379.07;251820;1133;114577;-81
2020/12/10 05:58:40;;;;;;;43.38;21.05;;;;;;;0.65;68.07;98374.66;251932;1132;114369;-81
2020/12/10 06:03:46;;;;;;;40.00;20.02;;;;;;;0.67;68.32;98378.91;251906;1132;114578;-82
2020/12/10 06:08:50;;;;;;;40.90;20.55;;;;;;;0.70;69.30;98377.96;252286;1132;114548;-80
2020/12/10 06:14:03;;;;;;;42.73;20.08;;;;;;;0.68;68.48;98375.41;252017;1132;115288;-80
2020/12/10 06:19:08;;;;;;;46.63;21.73;;;;;;;0.73;69.28;98379.63;252127;1132;114582;-81
2020/12/10 06:24:25;;;;;;;46.77;22.20;;;;;;;0.72;68.42;98372.69;252061;1132;115873;-80
2020/12/10 06:29:30;;;;;;;38.58;19.37;;;;;;;0.73;68.79;98374.39;252015;1132;114431;-80
2020/12/10 06:35:05;;;;;;;48.38;21.12;;;;;;;0.69;68.76;98363.16;252080;1134;115073;-80
2020/12/10 06:40:07;;;;;;;41.92;19.37;;;;;;;0.66;69.27;98358.88;252049;1132;114475;-80
2020/12/10 06:45:34;;;;;;;49.48;20.60;;;;;;;0.67;68.05;98360.58;252040;1132;114780;-79
2020/12/10 06:50:39;;;;;;;50.58;21.42;;;;;;;0.69;69.26;98356.16;252151;1134;114837;-81
2020/12/10 06:56:04;;;;;;;41.45;19.95;;;;;;;0.73;69.36;98340.35;251997;1134;115011;-80
2020/12/10 07:01:38;;;;;;;45.35;21.02;;;;;;;0.72;68.65;98336.03;252150;1132;114702;-80
2020/12/10 07:06:41;;;;;;;46.53;19.90;;;;;;;0.75;69.43;98328.93;250576;1132;114638;-80
2020/12/10 07:11:46;;;;;;;40.90;19.93;;;;;;;0.82;69.50;98324.34;248999;1132;114461;-80
2020/12/10 07:16:49;;;;;;;35.30;17.07;;;;;;;0.84;68.87;98317.27;252118;1132;114638;-80
2020/12/10 07:21:52;;;;;;;34.70;16.85;;;;;;;0.83;68.50;98319.03;251689;1132;115092;-79
2020/12/10 07:26:54;;;;;;;33.85;16.23;;;;;;;0.87;68.60;98317.16;252111;1132;114427;-80
2020/12/10 07:31:58;;;;;;;38.98;16.70;;;;;;;0.91;69.43;98295.19;251933;1132;115249;-80
2020/12/10 07:37:01;;;;;;;33.95;16.65;;;;;;;0.95;69.35;98307.26;252063;1132;114929;-80
2020/12/10 07:42:04;;;;;;;31.30;15.15;;;;;;;1.03;68.87;98301.77;252086;1132;114537;-80
2020/12/10 07:47:11;;;;;;;35.60;16.67;;;;;;;1.08;68.49;98300.68;251920;1132;114756;-79
2020/12/10 07:52:13;;;;;;;31.35;16.23;;;;;;;1.13;68.83;98285.67;252032;1132;114951;-79
2020/12/10 07:57:41;;;;;;;29.18;14.85;;;;;;;1.17;69.09;98289.03;252108;1132;114228;-79
2020/12/10 08:02:53;;;;;;;32.13;16.52;;;;;;;1.20;68.70;98294.16;251965;1132;114897;-79
2020/12/10 08:07:57;;;;;;;32.50;16.75;;;;;;;1.21;68.30;98288.00;252150;1132;114952;-78
2020/12/10 08:13:19;;;;;;;29.18;14.90;;;;;;;1.21;68.56;98292.39;252003;1132;114536;-78
2020/12/10 08:18:21;;;;;;;28.90;15.55;;;;;;;1.21;68.67;98292.39;252003;1134;114774;-79
2020/12/10 08:23:24;;;;;;;31.57;14.33;;;;;;;1.23;68.89;98290.58;251861;1134;114766;-79
2020/12/10 08:28:27;;;;;;;30.30;15.77;;;;;;;1.24;68.26;98271.31;251697;1132;175501;-79
2020/12/10 08:33:35;;;;;;;30.67;14.37;;;;;;;1.27;68.30;98269.44;251768;1132;114601;-79
2020/12/10 08:38:50;;;;;;;29.10;15.13;;;;;;;1.31;68.35;98268.41;251679;1132;114753;-78
2020/12/10 08:44:00;;;;;;;29.85;14.90;;;;;;;1.36;68.58;98270.87;251954;1132;114411;-78
2020/12/10 08:49:16;;;;;;;30.12;15.03;;;;;;;1.37;68.14;98259.47;252078;1134;114779;-79
2020/12/10 08:54:19;;;;;;;28.05;14.18;;;;;;;1.38;68.70;98248.91;252135;1133;115028;-78
2020/12/10 08:59:21;;;;;;;25.45;13.95;;;;;;;1.41;68.80;98245.33;252160;1132;114545;-75
2020/12/10 09:04:24;;;;;;;28.20;13.73;;;;;;;1.43;68.58;98243.52;250347;1132;114685;-78
2020/12/10 09:09:26;;;;;;;26.12;14.13;;;;;;;1.44;68.33;98241.74;252052;1140;114647;-77
2020/12/10 09:14:30;;;;;;;27.13;13.83;;;;;;;1.45;68.37;98241.67;252086;1131;114490;-77
2020/12/10 09:19:33;;;;;;;25.62;13.05;;;;;;;1.49;68.81;98243.25;251641;1132;114525;-78
2020/12/10 09:24:35;;;;;;;27.77;13.67;;;;;;;1.50;68.09;98221.39;249995;1133;114510;-78
2020/12/10 09:29:37;;;;;;;23.97;13.00;;;;;;;1.52;67.89;98219.55;251507;1132;114774;-79
2020/12/10 09:34:39;;;;;;;21.10;12.50;;;;;;;1.58;68.30;98224.55;247395;1134;114948;-77
2020/12/10 09:39:43;;;;;;;23.87;13.17;;;;;;;1.61;68.17;98216.58;251556;1132;115179;-78
2020/12/10 09:44:46;;;;;;;25.97;13.83;;;;;;;1.63;68.73;98206.02;252108;1132;114851;-80
2020/12/10 09:49:48;;;;;;;31.10;12.90;;;;;;;1.63;68.18;98206.89;251928;1132;115364;-78
2020/12/10 10:00:10;;;;;;;25.77;12.80;;;;;;;1.73;68.31;98188.14;249616;1133;114857;-80
2020/12/10 10:05:15;;;;;;;24.43;13.40;;;;;;;1.76;68.08;98174.91;248861;1132;114901;-80
2020/12/10 10:10:18;;;;;;;21.10;12.30;;;;;;;1.76;67.99;98164.42;251890;1132;114491;-80
2020/12/10 10:15:23;;;;;;;21.95;12.13;;;;;;;1.83;68.35;98165.88;252180;1132;114840;-80
2020/12/10 10:20:25;;;;;;;;;;;;;;;1.86;67.80;98157.88;251987;1132;114856;-80
2020/12/10 10:25:28;;;;;;;25.25;13.40;;;;;;;1.83;68.21;98156.23;252212;1132;102684;-80
2020/12/10 10:30:31;;;;;;;27.23;12.93;;;;;;;1.85;68.25;98143.06;252224;1132;114792;-81
2020/12/10 10:35:33;;;;;;;21.90;12.53;;;;;;;1.86;68.10;98136.89;252199;1132;114777;-80
2020/12/10 10:40:39;;;;;;;19.93;11.40;;;;;;;1.86;68.25;98139.52;251953;1132;115181;-80
2020/12/10 10:45:42;;;;;;;21.93;11.77;;;;;;;1.89;68.03;98134.15;248956;1134;115698;-81
2020/12/10 10:50:45;;;;;;;25.57;13.40;;;;;;;1.88;68.29;98119.34;248786;1134;115011;-81
2020/12/10 10:55:48;;;;;;;23.00;12.90;;;;;;;1.88;68.14;98114.94;251823;1139;114640;-81
2020/12/10 11:00:51;;;;;;;21.65;12.18;;;;;;;1.91;68.19;98111.34;252071;1132;114824;-81
2020/12/10 11:05:55;;;;;;;23.15;12.10;;;;;;;1.91;67.82;98108.72;252172;1133;114802;-81
2020/12/10 11:10:57;;;;;;;23.17;12.87;;;;;;;1.93;68.42;98109.48;251979;1134;115428;-81
2020/12/10 11:16:00;;;;;;;19.80;11.50;;;;;;;1.98;67.82;98094.42;251956;1132;114696;-81
2020/12/10 11:21:02;;;;;;;22.35;12.10;;;;;;;1.98;68.32;98088.33;252076;1132;114962;-80
2020/12/10 11:26:05;;;;;;;24.55;12.73;;;;;;;1.97;68.03;98084.85;251893;1134;115090;-80
2020/12/10 11:31:08;;;;;;;22.20;12.17;;;;;;;1.99;68.35;98080.37;251879;1132;114390;-80
2020/12/10 11:36:10;;;;;;;22.70;12.75;;;;;;;2.02;68.24;98085.49;251897;1132;114893;-80
2020/12/10 11:41:17;;;;;;;21.77;12.82;;;;;;;2.01;68.23;98081.17;252091;1132;114718;-80
2020/12/10 11:46:21;;;;;;;22.63;12.70;;;;;;;2.04;68.77;98086.30;252029;1133;114735;-80
2020/12/10 11:51:24;;;;;;;21.35;11.93;;;;;;;2.09;68.67;98079.05;251928;1132;114698;-80
2020/12/10 11:56:26;;;;;;;23.00;12.87;;;;;;;2.10;68.24;98072.87;252073;1131;114713;-80
2020/12/10 12:01:30;;;;;;;23.40;12.93;;;;;;;2.11;68.72;98071.98;251910;1132;114723;-80
2020/12/10 12:06:33;;;;;;;24.67;13.10;;;;;;;2.13;68.21;98070.13;252109;1133;114819;-80
2020/12/10 12:11:35;;;;;;;24.33;13.03;;;;;;;2.16;68.34;98070.92;252066;1132;114631;-80
2020/12/10 12:16:38;;;;;;;24.70;13.35;;;;;;;2.16;68.53;98069.14;252024;1132;114965;-84
2020/12/10 12:21:40;;;;;;;23.95;13.35;;;;;;;2.16;68.55;98069.14;248125;1132;115131;-84
2020/12/10 12:26:43;;;;;;;26.57;15.05;;;;;;;2.18;67.93;98055.97;252131;1132;114204;-84
2020/12/10 12:31:45;;;;;;;25.62;14.35;;;;;;;2.22;68.26;98042.64;252100;1131;114657;-85
2020/12/10 12:36:47;;;;;;;28.63;15.03;;;;;;;2.27;68.41;98047.67;252114;1135;114767;-86
2020/12/10 12:41:50;;;;;;;30.67;15.80;;;;;;;2.30;68.25;98053.64;250850;1132;114718;-85
2020/12/10 12:46:53;;;;;;;27.60;15.53;;;;;;;2.29;68.36;98058.97;252131;1132;114614;-82
2020/12/10 12:51:56;;;;;;;28.12;14.58;;;;;;;2.29;68.39;98061.59;252063;1134;114737;-81
2020/12/10 12:56:59;;;;;;;28.90;15.35;;;;;;;2.27;68.41;98052.92;252030;1132;114833;-81
2020/12/10 13:02:02;;;;;;;31.67;16.00;;;;;;;2.23;67.88;98051.36;251061;1132;114869;-81
2020/12/10 13:07:04;;;;;;;30.00;16.33;;;;;;;2.23;68.44;98046.95;251558;1132;114899;-81
2020/12/10 13:12:07;;;;;;;28.10;16.00;;;;;;;2.28;68.56;98052.02;252092;1132;114938;-81
2020/12/10 13:17:09;;;;;;;32.30;16.63;;;;;;;2.37;68.65;98048.96;252153;1132;115012;-81
2020/12/10 13:22:12;;;;;;;28.47;17.23;;;;;;;2.42;68.35;98052.25;251945;1134;114725;-81
2020/12/10 13:27:15;;;;;;;29.87;15.97;;;;;;;2.46;68.61;98047.71;251571;1131;115085;-81
2020/12/10 13:32:17;;;;;;;28.53;15.10;;;;;;;2.45;68.52;98059.99;251523;1132;114712;-81
2020/12/10 13:37:20;;;;;;;27.17;15.70;;;;;;;2.43;68.59;98053.95;251896;1132;114803;-81
2020/12/10 13:42:22;;;;;;;30.15;17.50;;;;;;;2.47;68.43;98049.41;252159;1134;115117;-80
2020/12/10 13:47:25;;;;;;;34.87;17.47;;;;;;;2.49;68.57;98044.95;249261;1131;114817;-79
2020/12/10 13:52:28;;;;;;;36.40;16.63;;;;;;;2.52;68.30;98044.81;252087;1132;114772;-79
2020/12/10 13:57:32;;;;;;;35.40;17.57;;;;;;;2.54;68.56;98043.80;252090;1132;115020;-79
2020/12/10 14:02:34;;;;;;;35.92;19.07;;;;;;;2.56;68.68;98046.38;252260;1132;114641;-79
2020/12/10 14:07:38;;;;;;;36.70;18.92;;;;;;;2.54;68.57;98050.83;252042;1132;115480;-79
2020/12/10 14:12:42;;;;;;;33.90;17.27;;;;;;;2.54;68.73;98046.42;252061;1132;114737;-80
2020/12/10 14:17:44;;;;;;;39.33;18.63;;;;;;;2.54;68.73;98048.20;252086;1131;114766;-78
2020/12/10 14:22:46;;;;;;;40.17;19.52;;;;;;;2.52;68.93;98050.06;251962;1132;114332;-78
2020/12/10 14:27:48;;;;;;;39.67;19.63;;;;;;;2.51;68.76;98050.97;249254;1132;115224;-78
2020/12/10 14:32:51;;;;;;;37.80;20.03;;;;;;;2.49;68.42;98048.42;251942;1131;114671;-78
2020/12/10 14:37:53;;;;;;;43.45;20.27;;;;;;;2.51;68.87;98049.19;251996;1131;114372;-79
2020/12/10 14:42:55;;;;;;;39.27;20.27;;;;;;;2.55;68.97;98044.67;252126;1132;115027;-79
2020/12/10 14:47:59;;;;;;;42.98;20.45;;;;;;;2.57;68.99;98053.31;251981;1132;114274;-79
2020/12/10 14:53:01;;;;;;;41.33;21.33;;;;;;;2.57;69.05;98051.54;251988;1132;116406;-79
2020/12/10 14:58:03;;;;;;;40.27;21.30;;;;;;;2.57;69.19;98059.42;251874;1132;114852;-80
2020/12/10 15:03:06;;;;;;;37.90;20.48;;;;;;;2.56;68.62;98062.98;252113;1132;114803;-79
2020/12/10 15:08:09;;;;;;;39.20;20.07;;;;;;;2.53;69.20;98073.62;252063;1132;114770;-79
2020/12/10 15:13:11;;;;;;;44.08;21.73;;;;;;;2.52;69.23;98085.05;251901;1132;114791;-80
2020/12/10 15:18:13;;;;;;;40.60;19.90;;;;;;;2.55;69.10;98091.95;252115;1132;114699;-79
2020/12/10 15:23:16;;;;;;;45.43;20.90;;;;;;;2.58;69.15;98078.65;252099;1132;115333;-80
2020/12/10 15:28:18;;;;;;;42.23;21.07;;;;;;;2.59;68.87;98088.25;252051;1132;115167;-80
2020/12/10 15:33:21;;;;;;;41.47;20.17;;;;;;;2.59;69.24;98088.25;251897;1132;115041;-81
2020/12/10 15:38:24;;;;;;;39.27;19.42;;;;;;;2.63;69.06;98099.47;252067;1132;114819;-79
2020/12/10 15:43:32;;;;;;;45.00;21.90;;;;;;;2.62;69.81;98098.62;250658;1132;114687;-79
2020/12/10 15:48:34;;;;;;;44.53;21.10;;;;;;;2.63;68.94;98099.47;252093;1132;115277;-82
2020/12/10 15:53:37;;;;;;;45.40;21.42;;;;;;;2.63;69.19;98107.35;252076;1132;114878;-81
2020/12/10 15:58:40;;;;;;;43.90;21.93;;;;;;;2.66;68.95;98096.70;251802;1133;114930;-80
2020/12/10 16:03:43;;;;;;;49.90;23.17;;;;;;;2.68;69.18;98090.44;251944;1134;114762;-80
2020/12/10 16:08:45;;;;;;;49.60;24.13;;;;;;;2.71;68.85;98081.58;252129;1132;115966;-80
2020/12/10 16:13:48;;;;;;;54.13;24.65;;;;;;;2.69;69.28;98083.44;251810;1132;114728;-80
2020/12/10 16:18:50;;;;;;;48.85;24.02;;;;;;;2.67;69.01;98091.38;251954;1133;114704;-79
2020/12/10 16:23:52;;;;;;;52.53;25.87;;;;;;;2.65;68.96;98090.61;252105;1132;114865;-78
2020/12/10 16:28:55;;;;;;;54.05;25.37;;;;;;;2.63;69.01;98110.83;252207;1132;114694;-81
2020/12/10 16:33:59;;;;;;;52.73;25.77;;;;;;;2.65;69.12;98123.88;252085;1132;115528;-79
2020/12/10 16:39:01;;;;;;;49.63;25.77;;;;;;;2.69;69.49;98136.83;251811;1132;114749;-78
2020/12/10 16:44:11;;;;;;;55.58;26.27;;;;;;;2.72;69.51;98148.98;252028;1132;115117;-80
2020/12/10 16:49:16;;;;;;;53.83;25.53;;;;;;;2.74;69.40;98145.34;252048;1131;114328;-79
2020/12/10 16:54:18;;;;;;;52.30;25.47;;;;;;;2.76;69.23;98124.27;251755;1132;114695;-78
2020/12/10 16:59:21;;;;;;;56.80;26.20;;;;;;;2.75;69.56;98122.54;252101;1132;115110;-80
2020/12/10 17:04:24;;;;;;;55.75;27.20;;;;;;;2.70;69.25;98108.78;251983;1132;114801;-81
2020/12/10 17:09:26;;;;;;;59.75;27.27;;;;;;;2.69;69.36;98117.59;251992;1132;114820;-82
2020/12/10 17:14:29;;;;;;;60.30;27.80;;;;;;;2.66;69.57;98125.60;251983;1132;114880;-81
2020/12/10 17:19:31;;;;;;;52.03;25.17;;;;;;;2.71;69.37;98132.33;252011;1132;114688;-80
2020/12/10 17:24:34;;;;;;;56.77;28.20;;;;;;;2.77;69.95;98144.35;251889;1134;114930;-81
2020/12/10 17:29:36;;;;;;;59.23;28.40;;;;;;;2.82;69.88;98139.76;249307;1131;115226;-79
2020/12/10 17:34:39;;;;;;;62.20;28.90;;;;;;;2.82;69.46;98130.09;251937;1131;114610;-83
2020/12/10 17:39:41;;;;;;;58.20;27.43;;;;;;;2.81;69.41;98114.39;251741;1132;115193;-84
2020/12/10 17:44:44;;;;;;;55.33;26.87;;;;;;;2.75;69.27;98110.28;249765;1132;114861;-82
2020/12/10 17:49:48;;;;;;;56.07;29.27;;;;;;;2.70;69.24;98119.28;250850;1132;114523;-86
2020/12/10 17:54:53;;;;;;;67.63;30.60;;;;;;;2.65;69.79;98129.12;251770;1132;114841;-77
2020/12/10 17:59:56;;;;;;;68.75;30.70;;;;;;;2.66;69.24;98125.60;250716;1131;114831;-87
2020/12/10 18:04:59;;;;;;;70.10;31.00;;;;;;;2.70;69.62;98145.55;249600;1131;115206;-78
2020/12/10 18:10:12;;;;;;;66.00;30.70;;;;;;;2.74;69.87;98136.61;249399;1131;116116;-80
2020/12/10 18:15:15;;;;;;;60.47;29.67;;;;;;;2.76;69.66;98138.25;249809;1132;115311;-78
2020/12/10 18:20:20;;;;;;;;;;;;;;;2.78;69.59;98132.91;250956;1132;115004;-78
2020/12/10 18:25:23;;;;;;;61.40;28.55;;;;;;;2.73;69.65;98129.66;252161;1132;102947;-80
2020/12/10 18:30:29;;;;;;;75.63;31.90;;;;;;;2.72;69.69;98130.59;248242;1132;114835;-89
2020/12/10 18:35:31;;;;;;;74.37;33.17;;;;;;;2.72;69.76;98141.09;250625;1132;115251;-80
2020/12/10 18:40:35;;;;;;;73.30;31.40;;;;;;;2.72;69.85;98154.23;251186;1130;114947;-79
2020/12/10 18:45:38;;;;;;;77.70;32.40;;;;;;;2.71;69.82;98161.23;247610;1131;115187;-77
2020/12/10 18:50:45;;;;;;;73.17;32.53;;;;;;;2.74;69.94;98168.98;251210;1131;114482;-85
2020/12/10 18:55:48;;;;;;;72.67;33.23;;;;;;;2.82;69.81;98187.05;249590;1132;115097;-75
2020/12/10 19:00:51;;;;;;;87.57;33.78;;;;;;;2.89;69.91;98188.48;251609;1132;115965;-78
2020/12/10 19:05:53;;;;;;;72.17;31.67;;;;;;;2.86;69.77;98195.65;251755;1134;115189;-78
2020/12/10 19:10:55;;;;;;;67.77;32.10;;;;;;;2.86;69.86;98191.24;252111;1133;114882;-78
2020/12/10 19:15:58;;;;;;;62.55;31.12;;;;;;;2.87;69.75;98208.70;250903;1132;114690;-77
2020/12/10 19:21:01;;;;;;;56.80;26.40;;;;;;;2.83;69.51;98218.50;252017;1132;114667;-77
2020/12/10 19:26:04;;;;;;;54.45;25.75;;;;;;;2.80;69.57;98209.90;251943;1131;114995;-77
2020/12/10 19:31:13;;;;;;;55.80;26.30;;;;;;;2.75;69.79;98209.23;252165;1136;115351;-76
2020/12/10 19:36:16;;;;;;;50.27;25.53;;;;;;;2.77;69.46;98216.13;252246;1132;114847;-77
2020/12/10 19:41:19;;;;;;;61.02;27.82;;;;;;;2.76;69.34;98224.09;251899;1132;114791;-77
2020/12/10 19:46:21;;;;;;;66.03;28.37;;;;;;;2.78;69.38;98224.86;252204;1132;114733;-77
2020/12/10 19:51:24;;;;;;;59.18;28.38;;;;;;;2.77;69.71;98210.87;252075;1132;116510;-78
2020/12/10 19:56:27;;;;;;;58.63;27.77;;;;;;;2.75;69.71;98214.48;251925;1132;114927;-78
2020/12/10 20:01:34;;;;;;;64.37;30.00;;;;;;;2.71;69.33;98215.55;251860;1132;114657;-78
2020/12/10 20:06:37;;;;;;;64.90;30.57;;;;;;;2.72;69.55;98212.02;252072;1131;114853;-78
2020/12/10 20:11:43;;;;;;;79.00;34.53;;;;;;;2.69;69.56;98214.78;252011;1132;114558;-79
2020/12/10 20:16:45;;;;;;;82.50;33.00;;;;;;;2.73;69.31;98213.72;252065;1132;114735;-75
2020/12/10 20:21:52;;;;;;;73.77;32.67;;;;;;;2.73;69.68;98205.84;252107;1132;115003;-86
2020/12/10 20:27:01;;;;;;;70.00;31.07;;;;;;;2.73;69.93;98204.06;251801;1132;114879;-86
2020/12/10 20:32:03;;;;;;;79.32;32.25;;;;;;;2.72;69.65;98217.27;252108;1132;114758;-78
2020/12/10 20:37:09;;;;;;;72.37;30.17;;;;;;;2.69;69.62;98222.66;252068;1134;115718;-81
2020/12/10 20:42:14;;;;;;;73.30;30.93;;;;;;;2.65;69.65;98216.69;250336;1134;114674;-79
2020/12/10 20:47:16;;;;;;;91.22;36.63;;;;;;;2.64;69.83;98220.21;252051;1132;114659;-78
2020/12/10 20:52:18;;;;;;;76.95;33.40;;;;;;;2.68;69.77;98211.27;252023;1132;114745;-78
2020/12/10 20:57:21;;;;;;;82.45;34.63;;;;;;;2.72;69.96;98226.00;251898;1131;115797;-78
2020/12/10 21:02:23;;;;;;;77.13;31.80;;;;;;;2.74;69.92;98229.40;252148;1132;114715;-78
2020/12/10 21:07:26;;;;;;;69.97;30.10;;;;;;;2.74;70.13;98237.28;251763;1132;114752;-85
2020/12/10 21:12:30;;;;;;;66.47;29.53;;;;;;;2.74;69.75;98237.28;251499;1132;114904;-76
2020/12/10 21:17:33;;;;;;;67.20;28.87;;;;;;;2.75;69.87;98246.02;252114;1131;114704;-79
2020/12/10 21:22:36;;;;;;;62.25;28.95;;;;;;;2.75;69.79;98243.38;252098;1132;114747;-78
2020/12/10 21:27:38;;;;;;;70.35;30.45;;;;;;;2.72;69.81;98239.14;252008;1132;114810;-77
2020/12/10 21:32:41;;;;;;;71.17;30.30;;;;;;;2.77;70.04;98249.44;252128;1132;114680;-77
2020/12/10 21:37:43;;;;;;;71.73;30.33;;;;;;;2.77;69.74;98245.03;251920;1134;115329;-78
2020/12/10 21:42:45;;;;;;;81.60;29.95;;;;;;;2.81;69.69;98243.13;252107;1131;114689;-78
2020/12/10 21:47:48;;;;;;;70.45;31.15;;;;;;;2.82;69.96;98250.95;251961;1132;114628;-78
2020/12/10 21:52:50;;;;;;;67.53;27.53;;;;;;;2.79;69.32;98256.34;251843;1132;114593;-78
2020/12/10 21:57:53;;;;;;;61.37;29.00;;;;;;;2.69;69.55;98262.91;252171;1132;114791;-79
2020/12/10 22:02:56;;;;;;;75.20;31.40;;;;;;;2.66;69.78;98283.20;251971;1132;114218;-80
2020/12/10 22:07:59;;;;;;;65.17;29.77;;;;;;;2.69;69.69;98280.45;252073;1132;115605;-79
2020/12/10 22:13:05;;;;;;;65.12;31.02;;;;;;;2.70;69.70;98279.52;252063;1132;114985;-80
2020/12/10 22:18:07;;;;;;;;;;;;;;;2.73;69.80;98288.13;252076;1133;114690;-79
2020/12/10 22:23:10;;;;;;;64.47;29.83;;;;;;;2.73;69.81;98282.87;252046;1132;103908;-79
2020/12/10 22:28:14;;;;;;;67.82;32.40;;;;;;;2.74;69.50;98296.86;252056;1132;114938;-79
2020/12/10 22:33:17;;;;;;;68.30;31.93;;;;;;;2.74;69.73;98289.83;251978;1132;115298;-79
2020/12/10 22:38:20;;;;;;;70.20;33.07;;;;;;;2.73;69.77;98293.37;252054;1132;115007;-79
2020/12/10 22:43:22;;;;;;;67.23;34.03;;;;;;;2.72;69.54;98283.80;252046;1133;115325;-79
2020/12/10 22:48:25;;;;;;;74.00;34.45;;;;;;;2.72;69.45;98282.95;251708;1134;114636;-79
2020/12/10 22:53:28;;;;;;;66.83;33.27;;;;;;;2.73;69.42;98282.02;251783;1132;115957;-80
2020/12/10 22:58:31;;;;;;;76.85;35.30;;;;;;;2.77;69.55;98286.22;251977;1132;114702;-79
2020/12/10 23:03:34;;;;;;;67.23;33.33;;;;;;;2.80;70.18;98275.58;252065;1132;114528;-80
2020/12/10 23:08:37;;;;;;;74.82;34.33;;;;;;;2.90;69.79;98278.67;252131;1132;114799;-78
2020/12/10 23:13:42;;;;;;;69.20;34.53;;;;;;;2.93;69.69;98275.91;250110;1132;114854;-78
2020/12/10 23:18:46;;;;;;;67.37;32.07;;;;;;;2.93;69.97;98273.28;252115;1132;114751;-79
2020/12/10 23:23:49;;;;;;;75.17;32.25;;;;;;;2.92;69.86;98292.58;251769;1134;114441;-80